Time;durP1;ratioP1;P1;durP2;ratioP2;P2;SDS_P1;SDS_P2;PMS_P1;PMS_P2;Temp;Humidity;BMP_temperature;BMP_pressure;BME280_temperature;BME280_humidity;BME280_pressure;Samples;Min_cycle;Max_cycle;Signal;HPM_P1;HPM_P2
2022/09/22 00:01:17;;;;;;;1.40;1.10;;;10.10;99.90;;;;;;5075914;28;20541;-95
2022/09/22 00:03:47;;;;;;;1.67;1.40;;;9.70;99.90;;;;;;5076113;28;20169;-96
2022/09/22 00:06:36;;;;;;;1.93;1.77;;;10.20;99.90;;;;;;5058430;28;20179;-96
2022/09/22 00:09:02;;;;;;;1.00;1.00;;;10.90;99.90;;;;;;5076353;28;20639;-95
2022/09/22 00:11:32;;;;;;;1.40;1.23;;;9.60;99.90;;;;;;5075727;28;20615;-96
2022/09/22 00:13:59;;;;;;;1.63;1.53;;;9.80;99.90;;;;;;5076430;28;20174;-96
2022/09/22 00:16:28;;;;;;;0.97;0.90;;;9.60;99.90;;;;;;5058725;28;20274;-96
2022/09/22 00:18:54;;;;;;;2.13;1.07;;;10.30;99.90;;;;;;5076112;28;20254;-96
2022/09/22 00:21:22;;;;;;;1.43;1.33;;;9.60;99.90;;;;;;5058676;28;20272;-94
2022/09/22 00:23:49;;;;;;;2.47;1.70;;;9.60;99.90;;;;;;5076074;28;20171;-96
2022/09/22 00:26:17;;;;;;;2.53;2.07;;;10.10;99.90;;;;;;5075746;28;20179;-96
2022/09/22 00:28:44;;;;;;;1.50;1.40;;;9.50;99.90;;;;;;5075389;28;20219;-96
2022/09/22 00:31:18;;;;;;;0.60;0.60;;;9.50;99.90;;;;;;5075897;28;20242;-95
2022/09/22 00:33:45;;;;;;;2.27;1.67;;;9.50;99.90;;;;;;5057669;28;20175;-96
2022/09/22 00:36:11;;;;;;;1.27;0.97;;;9.50;99.90;;;;;;5075881;28;20287;-96
2022/09/22 00:38:38;;;;;;;1.87;1.47;;;9.90;99.90;;;;;;5057506;28;20262;-96
2022/09/22 00:41:05;;;;;;;2.70;2.23;;;11.00;99.90;;;;;;5057866;28;20185;-96
2022/09/22 00:43:35;;;;;;;3.10;1.23;;;10.20;99.90;;;;;;5097500;28;20209;-91
2022/09/22 00:46:13;;;;;;;1.30;0.97;;;9.50;99.90;;;;;;5099503;28;20182;-95
2022/09/22 00:48:43;;;;;;;1.73;1.63;;;9.50;99.90;;;;;;5082291;28;20230;-93
2022/09/22 00:51:12;;;;;;;1.50;1.40;;;9.60;99.90;;;;;;5099260;28;20189;-96
2022/09/22 00:53:38;;;;;;;1.57;1.47;;;10.00;99.90;;;;;;5099212;28;20152;-93
2022/09/22 00:56:08;;;;;;;1.60;1.50;;;9.40;99.90;;;;;;5099672;28;20159;-95
2022/09/22 00:58:43;;;;;;;1.63;1.33;;;9.40;99.90;;;;;;5081912;28;20167;-93
2022/09/22 01:01:08;;;;;;;1.30;1.20;;;9.40;99.90;;;;;;5082037;28;20166;-96
2022/09/22 01:03:38;;;;;;;1.73;1.63;;;9.60;99.90;;;;;;5081655;28;20172;-92
2022/09/22 01:06:08;;;;;;;2.53;1.37;;;9.50;99.90;;;;;;5099024;28;20163;-94
2022/09/22 01:08:35;;;;;;;1.30;0.97;;;9.40;99.90;;;;;;5098798;28;20185;-91
2022/09/22 01:11:01;;;;;;;1.70;1.50;;;10.70;99.90;;;;;;5098668;28;20316;-95
2022/09/22 01:13:49;;;;;;;1.57;1.20;;;11.30;99.90;;;;;;5081440;28;20195;-89
2022/09/22 01:16:31;;;;;;;2.87;1.40;;;9.40;99.90;;;;;;5013965;28;20187;-95
2022/09/22 01:19:20;;;;;;;2.03;1.77;;;9.40;99.90;;;;;;5074665;28;20234;-95
2022/09/22 01:21:50;;;;;;;1.57;1.37;;;9.40;99.90;;;;;;5057648;28;20279;-95
2022/09/22 01:24:52;;;;;;;1.17;1.07;;;9.40;99.90;;;;;;5057426;28;20202;-95
2022/09/22 01:27:47;;;;;;;1.10;0.73;;;9.40;99.90;;;;;;5056975;28;20643;-95
2022/09/22 01:30:13;;;;;;;0.67;0.60;;;9.40;99.90;;;;;;4967826;28;20230;-92
2022/09/22 01:32:52;;;;;;;1.23;1.23;;;9.40;99.90;;;;;;5055165;28;20182;-95
2022/09/22 01:35:28;;;;;;;1.40;1.30;;;9.30;99.90;;;;;;5054683;28;20278;-95
2022/09/22 01:38:15;;;;;;;2.40;1.67;;;9.30;99.90;;;;;;5037209;28;20209;-96
2022/09/22 01:41:17;;;;;;;1.60;1.50;;;10.00;99.90;;;;;;5036935;28;20664;-96
2022/09/22 01:43:55;;;;;;;1.80;1.70;;;9.40;99.90;;;;;;5054575;28;20183;-95
2022/09/22 01:46:33;;;;;;;1.67;1.57;;;9.30;99.90;;;;;;5054241;28;20172;-96
2022/09/22 01:49:02;;;;;;;1.30;1.20;;;9.30;99.90;;;;;;5054243;28;20682;-95
2022/09/22 01:51:33;;;;;;;2.00;1.83;;;9.30;99.90;;;;;;5054030;28;20212;-94
2022/09/22 01:54:06;;;;;;;1.70;1.00;;;9.30;99.90;;;;;;5054234;28;20225;-95
2022/09/22 01:56:35;;;;;;;1.37;1.27;;;9.30;99.90;;;;;;5054027;28;20187;-89
2022/09/22 01:59:03;;;;;;;2.00;1.30;;;9.20;99.90;;;;;;5054093;28;20179;-94
2022/09/22 02:01:40;;;;;;;1.40;1.40;;;9.30;99.90;;;;;;5054175;28;20190;-95
2022/09/22 02:04:08;;;;;;;3.13;2.03;;;9.20;99.90;;;;;;5053894;28;20168;-95
2022/09/22 02:06:46;;;;;;;1.70;1.13;;;9.20;99.90;;;;;;5036152;28;20563;-94
2022/09/22 02:09:15;;;;;;;1.57;1.47;;;9.30;99.90;;;;;;5054686;28;20271;-93
2022/09/22 02:11:41;;;;;;;3.17;1.87;;;9.70;99.90;;;;;;5037015;28;20223;-93
2022/09/22 02:14:07;;;;;;;1.50;1.40;;;9.30;99.90;;;;;;5054559;28;20193;-90
2022/09/22 02:16:34;;;;;;;1.50;1.40;;;10.20;99.90;;;;;;5053855;28;20176;-96
2022/09/22 02:19:15;;;;;;;1.43;1.33;;;9.20;99.90;;;;;;5047656;28;20183;-95
2022/09/22 02:21:44;;;;;;;1.43;1.07;;;9.20;99.90;;;;;;5028483;28;20563;-95
2022/09/22 02:24:33;;;;;;;1.07;1.00;;;9.30;99.90;;;;;;5024680;28;20629;-95
2022/09/22 02:27:04;;;;;;;4.13;1.30;;;9.20;99.90;;;;;;5043002;28;20180;-95
2022/09/22 02:29:34;;;;;;;0.87;0.87;;;10.30;99.90;;;;;;5054034;28;20223;-94
2022/09/22 02:32:04;;;;;;;1.00;1.00;;;10.20;99.90;;;;;;5045422;28;20276;-94
2022/09/22 02:34:30;;;;;;;1.60;1.50;;;9.20;99.90;;;;;;5064378;28;20191;-95
2022/09/22 02:37:17;;;;;;;1.27;1.10;;;9.60;99.90;;;;;;5043620;28;20927;-94
2022/09/22 02:40:12;;;;;;;1.00;1.00;;;9.20;99.90;;;;;;5062472;28;20243;-94
2022/09/22 02:42:41;;;;;;;1.83;1.40;;;9.10;99.90;;;;;;5061693;28;20258;-94
2022/09/22 02:45:16;;;;;;;1.50;1.20;;;9.20;99.90;;;;;;5063718;28;20180;-94
2022/09/22 02:48:01;;;;;;;1.43;1.33;;;9.20;99.90;;;;;;5069088;28;20171;-95
2022/09/22 02:50:28;;;;;;;2.07;1.77;;;9.10;99.90;;;;;;5059704;28;20293;-94
2022/09/22 02:53:14;;;;;;;1.13;1.13;;;9.10;99.90;;;;;;5076660;28;20171;-94
2022/09/22 02:55:41;;;;;;;1.40;1.30;;;9.20;99.90;;;;;;5076664;28;20229;-94
2022/09/22 02:58:07;;;;;;;0.90;0.90;;;9.10;99.90;;;;;;5076774;28;20183;-94
2022/09/22 03:00:33;;;;;;;2.83;1.27;;;9.20;99.90;;;;;;5059179;28;20270;-95
2022/09/22 03:02:59;;;;;;;1.37;1.27;;;9.10;99.90;;;;;;5076589;28;20651;-94
2022/09/22 03:05:24;;;;;;;0.70;0.70;;;9.60;99.90;;;;;;5059219;28;20187;-94
2022/09/22 03:07:50;;;;;;;1.53;1.43;;;9.10;99.90;;;;;;5059876;28;20632;-92
2022/09/22 03:10:15;;;;;;;1.10;1.10;;;9.20;99.90;;;;;;5042233;28;20203;-96
2022/09/22 03:12:42;;;;;;;2.80;1.40;;;9.10;99.90;;;;;;5076753;28;20575;-96
2022/09/22 03:15:13;;;;;;;0.90;0.90;;;9.60;99.90;;;;;;5061634;28;20183;-95
2022/09/22 03:17:40;;;;;;;1.37;1.27;;;9.10;99.90;;;;;;5083002;28;20172;-95
2022/09/22 03:20:08;;;;;;;1.15;1.05;;;10.70;99.90;;;;;;5082165;28;20186;-95
2022/09/22 03:22:33;;;;;;;1.00;1.00;;;9.10;99.90;;;;;;5078793;28;20175;-95
2022/09/22 03:24:59;;;;;;;2.00;1.53;;;10.20;99.90;;;;;;5058944;28;20182;-95
2022/09/22 03:27:26;;;;;;;1.53;1.43;;;10.00;99.90;;;;;;5072078;28;20266;-95
2022/09/22 03:29:51;;;;;;;0.83;0.83;;;9.10;99.90;;;;;;5073852;28;20723;-95
2022/09/22 03:32:17;;;;;;;1.53;1.43;;;9.10;99.90;;;;;;5054767;28;20192;-95
2022/09/22 03:34:43;;;;;;;1.13;1.03;;;9.20;99.90;;;;;;5056539;28;20175;-95
2022/09/22 03:37:09;;;;;;;1.53;1.43;;;9.00;99.90;;;;;;5074708;28;20198;-95
2022/09/22 03:39:34;;;;;;;1.00;0.90;;;9.20;99.90;;;;;;5071947;28;20884;-94
2022/09/22 03:42:00;;;;;;;1.37;1.17;;;10.00;99.90;;;;;;5039860;28;20191;-93
2022/09/22 03:44:25;;;;;;;1.60;1.50;;;10.00;99.90;;;;;;5056646;28;20648;-94
2022/09/22 03:46:52;;;;;;;2.03;1.93;;;9.00;99.90;;;;;;5048541;28;20198;-94
2022/09/22 03:49:17;;;;;;;0.97;0.97;;;9.10;99.90;;;;;;5035483;28;20537;-95
2022/09/22 03:51:43;;;;;;;2.40;1.63;;;9.00;99.90;;;;;;5074333;28;20211;-94
2022/09/22 03:54:08;;;;;;;0.80;0.80;;;9.00;99.90;;;;;;5073978;28;20240;-94
2022/09/22 03:56:34;;;;;;;1.17;1.07;;;9.00;99.90;;;;;;5048626;28;20188;-95
2022/09/22 03:59:00;;;;;;;1.47;1.37;;;9.00;99.90;;;;;;5019533;28;20184;-92
2022/09/22 04:01:25;;;;;;;1.33;1.17;;;9.10;99.90;;;;;;5033321;28;20187;-93
2022/09/22 04:03:51;;;;;;;0.90;0.90;;;9.00;99.90;;;;;;5088624;28;20236;-91
2022/09/22 04:06:17;;;;;;;1.97;1.87;;;9.00;99.90;;;;;;5020277;28;20176;-95
2022/09/22 04:08:42;;;;;;;2.23;1.07;;;10.20;99.90;;;;;;5064751;28;20556;-94
2022/09/22 04:11:08;;;;;;;1.40;1.30;;;9.00;99.90;;;;;;5054295;28;20207;-95
2022/09/22 04:13:34;;;;;;;2.90;2.43;;;9.00;99.90;;;;;;5055640;28;20198;-93
2022/09/22 04:16:01;;;;;;;3.30;1.87;;;9.00;99.90;;;;;;5056328;28;20195;-93
2022/09/22 04:18:27;;;;;;;1.43;1.33;;;9.00;99.90;;;;;;5053275;28;20257;-93
2022/09/22 04:20:59;;;;;;;6.97;1.50;;;9.30;99.90;;;;;;5035652;28;20188;-94
2022/09/22 04:23:25;;;;;;;1.00;1.00;;;9.00;99.90;;;;;;5056510;28;20187;-94
2022/09/22 04:25:51;;;;;;;2.93;1.40;;;9.00;99.90;;;;;;5066462;28;20198;-93
2022/09/22 04:28:17;;;;;;;1.70;1.43;;;9.10;99.90;;;;;;5072108;28;20191;-94
2022/09/22 04:30:43;;;;;;;1.70;1.60;;;9.00;99.90;;;;;;5073791;28;20244;-93
2022/09/22 04:33:09;;;;;;;2.20;1.50;;;9.60;99.90;;;;;;5039061;28;20187;-92
2022/09/22 04:35:36;;;;;;;2.00;1.63;;;9.10;99.90;;;;;;5054549;28;20194;-93
2022/09/22 04:38:02;;;;;;;1.90;1.70;;;9.00;99.90;;;;;;5078998;28;20190;-93
2022/09/22 04:40:28;;;;;;;1.27;1.27;;;9.00;99.90;;;;;;5073572;28;20635;-92
2022/09/22 04:42:55;;;;;;;2.27;1.47;;;9.00;99.90;;;;;;5056648;28;20584;-93
2022/09/22 04:45:20;;;;;;;1.43;1.30;;;9.50;99.90;;;;;;5052858;28;20727;-94
2022/09/22 04:47:47;;;;;;;3.60;2.43;;;9.80;99.90;;;;;;5046158;28;20203;-93
2022/09/22 04:50:13;;;;;;;1.87;1.77;;;9.00;99.90;;;;;;5064464;28;20214;-93
2022/09/22 04:52:44;;;;;;;1.47;1.33;;;9.80;99.90;;;;;;5084355;28;20163;-93
2022/09/22 04:55:10;;;;;;;1.57;1.17;;;9.90;99.90;;;;;;5070027;28;20179;-93
2022/09/22 04:57:36;;;;;;;1.30;1.20;;;9.00;99.90;;;;;;5057367;28;20237;-93
2022/09/22 05:00:04;;;;;;;2.37;1.20;;;10.30;99.90;;;;;;5068270;28;20652;-94
2022/09/22 05:02:29;;;;;;;0.87;0.87;;;9.10;99.90;;;;;;5037493;28;20184;-94
2022/09/22 05:04:55;;;;;;;1.30;1.27;;;9.10;99.90;;;;;;5054604;28;20248;-94
2022/09/22 05:07:21;;;;;;;0.93;0.93;;;9.30;99.90;;;;;;5055300;28;20192;-95
2022/09/22 05:09:46;;;;;;;1.73;1.63;;;9.10;99.90;;;;;;5053742;28;20582;-93
2022/09/22 05:12:12;;;;;;;1.43;1.33;;;9.20;99.90;;;;;;5037405;28;20172;-94
2022/09/22 05:14:38;;;;;;;1.83;1.73;;;9.90;99.90;;;;;;5054579;28;20198;-95
2022/09/22 05:17:03;;;;;;;2.50;2.30;;;9.10;99.90;;;;;;5056278;28;20172;-95
2022/09/22 05:19:29;;;;;;;1.43;1.33;;;9.10;99.90;;;;;;5037343;28;20176;-94
2022/09/22 05:21:54;;;;;;;1.73;1.63;;;9.10;99.90;;;;;;5053536;28;20186;-94
2022/09/22 05:24:20;;;;;;;1.67;1.57;;;10.20;99.90;;;;;;5061762;28;20184;-93
2022/09/22 05:26:46;;;;;;;1.33;1.23;;;10.10;99.90;;;;;;5062013;28;20183;-95
2022/09/22 05:29:12;;;;;;;1.27;1.17;;;9.20;99.90;;;;;;5062751;28;20594;-95
2022/09/22 05:31:37;;;;;;;2.87;2.07;;;9.60;99.90;;;;;;5064839;28;20203;-93
2022/09/22 05:34:03;;;;;;;1.90;1.53;;;9.20;99.90;;;;;;5064550;28;20206;-95
2022/09/22 05:36:28;;;;;;;1.97;1.70;;;9.20;99.90;;;;;;5063875;28;20675;-95
2022/09/22 05:38:54;;;;;;;3.47;2.37;;;9.30;99.90;;;;;;5063591;28;20236;-94
2022/09/22 05:41:19;;;;;;;1.60;1.50;;;9.30;99.90;;;;;;5064831;28;20643;-93
2022/09/22 05:43:45;;;;;;;2.50;1.73;;;10.30;99.90;;;;;;5067106;28;20186;-94
2022/09/22 05:46:11;;;;;;;0.83;0.83;;;10.70;99.90;;;;;;5067144;28;20211;-95
2022/09/22 05:48:36;;;;;;;2.13;1.60;;;10.10;99.90;;;;;;5062684;28;20680;-94
2022/09/22 05:51:02;;;;;;;1.80;1.50;;;9.30;99.90;;;;;;5066741;28;20211;-93
2022/09/22 05:53:28;;;;;;;2.37;2.17;;;9.40;99.90;;;;;;5045506;28;20643;-94
2022/09/22 05:55:55;;;;;;;2.10;1.57;;;9.40;99.90;;;;;;5029845;28;20187;-93
2022/09/22 05:58:21;;;;;;;2.00;1.77;;;9.40;99.90;;;;;;5039136;28;20182;-94
2022/09/22 06:00:47;;;;;;;3.03;1.40;;;9.40;99.90;;;;;;5063851;28;20187;-92
2022/09/22 06:03:12;;;;;;;1.87;1.70;;;9.40;99.90;;;;;;5064297;28;20176;-93
2022/09/22 06:05:38;;;;;;;1.73;1.60;;;10.50;99.90;;;;;;5044765;28;20211;-93
2022/09/22 06:08:05;;;;;;;1.73;1.63;;;9.50;99.90;;;;;;5056711;28;20179;-94
2022/09/22 06:10:33;;;;;;;1.53;1.43;;;9.50;99.90;;;;;;5052683;28;20214;-94
2022/09/22 06:13:09;;;;;;;1.50;1.40;;;9.50;99.90;;;;;;5064605;28;20175;-90
2022/09/22 06:15:35;;;;;;;1.60;1.10;;;9.50;99.90;;;;;;5064652;28;20175;-94
2022/09/22 06:18:05;;;;;;;2.63;2.43;;;9.50;99.90;;;;;;5077582;28;20180;-91
2022/09/22 06:20:32;;;;;;;1.90;1.63;;;9.60;99.90;;;;;;5085670;28;20179;-93
2022/09/22 06:22:58;;;;;;;1.57;1.30;;;9.70;99.90;;;;;;5085065;28;20771;-91
2022/09/22 06:25:26;;;;;;;2.03;1.83;;;9.60;99.90;;;;;;5084931;28;20247;-93
2022/09/22 06:28:06;;;;;;;2.23;1.57;;;9.60;99.90;;;;;;5062682;28;20176;-92
2022/09/22 06:30:33;;;;;;;1.43;1.33;;;9.70;99.90;;;;;;5086502;28;20241;-93
2022/09/22 06:32:59;;;;;;;2.20;2.00;;;10.20;99.90;;;;;;5083952;28;20188;-91
2022/09/22 06:35:27;;;;;;;2.03;1.93;;;10.50;99.90;;;;;;5059274;28;20176;-91
2022/09/22 06:37:56;;;;;;;1.63;1.37;;;9.70;99.90;;;;;;5079565;28;20641;-93
2022/09/22 06:40:23;;;;;;;2.73;2.20;;;9.70;99.90;;;;;;5049801;28;20195;-94
2022/09/22 06:42:54;;;;;;;2.13;1.90;;;9.80;99.90;;;;;;5052758;28;20210;-92
2022/09/22 06:45:20;;;;;;;1.70;1.60;;;10.90;99.90;;;;;;5071078;28;20167;-91
2022/09/22 06:47:45;;;;;;;1.87;1.70;;;9.80;99.90;;;;;;5067179;28;20604;-90
2022/09/22 06:50:16;;;;;;;2.17;1.73;;;9.80;99.90;;;;;;5061990;28;20207;-92
2022/09/22 06:52:42;;;;;;;3.17;2.07;;;9.90;99.90;;;;;;5055343;28;20176;-91
2022/09/22 06:55:09;;;;;;;1.70;1.40;;;9.90;99.90;;;;;;5080505;28;20175;-91
2022/09/22 06:57:35;;;;;;;3.22;1.95;;;9.90;99.90;;;;;;5063974;28;20172;-92
2022/09/22 07:00:02;;;;;;;2.23;1.60;;;10.00;99.90;;;;;;5063821;28;20194;-92
2022/09/22 07:02:28;;;;;;;2.05;1.33;;;10.00;99.90;;;;;;5063517;28;20183;-92
2022/09/22 07:04:57;;;;;;;2.03;1.90;;;10.00;99.90;;;;;;5080385;28;20164;-92
2022/09/22 07:07:26;;;;;;;1.75;1.65;;;10.00;99.90;;;;;;5063598;28;20172;-92
2022/09/22 07:09:51;;;;;;;1.97;1.77;;;10.10;99.90;;;;;;5063749;28;20195;-91
2022/09/22 07:12:18;;;;;;;1.13;1.03;;;10.10;99.90;;;;;;5063372;28;20163;-93
2022/09/22 07:14:47;;;;;;;1.27;1.20;;;10.20;99.90;;;;;;5066171;28;20199;-90
2022/09/22 07:17:13;;;;;;;1.70;1.60;;;10.20;99.90;;;;;;5071039;28;20196;-91
2022/09/22 07:19:39;;;;;;;2.30;1.63;;;10.30;99.90;;;;;;5089849;28;20175;-91
2022/09/22 07:22:05;;;;;;;1.75;1.27;;;10.30;99.90;;;;;;5088415;28;20203;-91
2022/09/22 07:24:31;;;;;;;2.13;1.17;;;10.30;99.90;;;;;;5071585;28;20187;-92
2022/09/22 07:26:57;;;;;;;3.28;1.42;;;10.40;99.90;;;;;;5051700;28;20187;-92
2022/09/22 07:29:23;;;;;;;2.35;2.15;;;11.30;99.90;;;;;;5054301;28;20223;-91
2022/09/22 07:31:49;;;;;;;1.73;1.33;;;10.40;99.90;;;;;;5056832;28;20211;-92
2022/09/22 07:34:17;;;;;;;1.63;1.50;;;10.50;99.90;;;;;;5038023;28;20237;-91
2022/09/22 07:36:43;;;;;;;1.63;1.50;;;11.40;99.90;;;;;;5050549;28;20175;-91
2022/09/22 07:39:09;;;;;;;2.25;1.33;;;10.90;99.90;;;;;;5032361;28;20648;-91
2022/09/22 07:41:40;;;;;;;1.75;1.27;;;11.80;99.90;;;;;;5046302;28;20179;-90
2022/09/22 07:46:51;;;;;;;1.85;1.33;;;10.60;99.90;;;;;;5070390;28;20439;-92
2022/09/22 07:49:18;;;;;;;1.67;1.50;;;10.60;99.90;;;;;;5066797;28;20176;-92
2022/09/22 07:51:44;;;;;;;1.10;1.10;;;10.90;99.90;;;;;;5052764;28;20202;-94
2022/09/22 07:54:10;;;;;;;1.45;1.35;;;10.70;99.90;;;;;;5071283;28;20242;-92
2022/09/22 07:56:39;;;;;;;2.42;2.13;;;10.70;99.90;;;;;;5080263;28;20188;-92
2022/09/22 07:59:10;;;;;;;1.60;1.30;;;10.80;99.90;;;;;;5069565;28;20632;-91
2022/09/22 08:01:42;;;;;;;1.83;1.60;;;10.90;99.90;;;;;;5049132;28;20194;-93
2022/09/22 08:04:11;;;;;;;2.00;1.80;;;11.00;99.90;;;;;;5047353;28;20261;-92
2022/09/22 08:06:37;;;;;;;1.75;1.60;;;11.00;99.90;;;;;;5063824;28;20171;-91
2022/09/22 08:09:05;;;;;;;2.20;2.00;;;11.00;99.90;;;;;;5048662;28;20542;-93
2022/09/22 08:11:31;;;;;;;2.17;1.90;;;11.00;99.90;;;;;;5068736;28;20816;-93
2022/09/22 08:14:04;;;;;;;1.67;1.58;;;12.10;99.90;;;;;;5047521;28;20188;-93
2022/09/22 08:16:38;;;;;;;3.00;1.67;;;11.20;99.90;;;;;;5072792;28;20254;-90
2022/09/22 08:19:11;;;;;;;1.73;1.27;;;11.20;99.90;;;;;;5066237;28;20636;-92
2022/09/22 08:21:42;;;;;;;1.77;1.63;;;11.30;99.90;;;;;;5067567;28;20171;-91
2022/09/22 08:24:10;;;;;;;1.55;1.45;;;11.20;99.90;;;;;;5077246;28;20178;-93
2022/09/22 08:26:37;;;;;;;1.45;1.35;;;11.20;99.90;;;;;;5066050;28;20176;-94
2022/09/22 08:29:04;;;;;;;2.45;1.67;;;11.20;99.90;;;;;;5067043;28;20268;-94
2022/09/22 08:31:31;;;;;;;2.15;1.95;;;11.30;99.90;;;;;;5048706;28;20239;-90
2022/09/22 08:33:57;;;;;;;2.10;1.95;;;11.40;99.90;;;;;;5063360;28;20172;-91
2022/09/22 08:36:26;;;;;;;1.45;1.35;;;11.40;99.90;;;;;;5028329;28;20241;-92
2022/09/22 08:38:53;;;;;;;1.27;1.17;;;11.50;99.90;;;;;;5063707;28;20263;-93
2022/09/22 08:41:42;;;;;;;1.38;1.17;;;12.00;99.90;;;;;;5047533;28;20179;-90
2022/09/22 08:44:10;;;;;;;1.58;1.48;;;11.50;99.90;;;;;;5065049;28;20262;-92
2022/09/22 08:46:40;;;;;;;2.58;1.67;;;11.60;99.90;;;;;;5064276;28;20174;-93
2022/09/22 08:52:40;;;;;;;3.60;2.15;;;11.70;99.90;;;;;;5063409;28;20202;-91
2022/09/22 08:55:21;;;;;;;1.27;0.93;;;11.70;99.90;;;;;;5049896;28;20180;-92
2022/09/22 08:58:02;;;;;;;1.92;1.42;;;11.70;99.90;;;;;;5061672;28;20728;-91
2022/09/22 09:00:37;;;;;;;1.67;1.45;;;11.70;99.90;;;;;;5044072;28;20183;-92
2022/09/22 09:03:19;;;;;;;0.65;0.65;;;11.80;99.90;;;;;;5062971;28;20262;-92
2022/09/22 09:06:03;;;;;;;1.10;1.08;;;11.80;99.90;;;;;;5064272;28;20322;-93
2022/09/22 09:08:49;;;;;;;1.83;1.67;;;11.90;99.90;;;;;;5048394;28;20168;-93
2022/09/22 09:11:29;;;;;;;1.38;1.27;;;12.00;99.90;;;;;;5063057;28;20203;-93
2022/09/22 09:14:13;;;;;;;3.53;2.30;;;12.00;99.90;;;;;;5062800;28;20200;-94
2022/09/22 09:16:48;;;;;;;2.03;1.58;;;12.00;99.90;;;;;;5054201;28;20190;-90
2022/09/22 09:19:20;;;;;;;1.45;1.20;;;12.10;99.90;;;;;;5070741;28;20175;-94
2022/09/22 09:21:50;;;;;;;2.83;1.30;;;12.20;99.90;;;;;;5070117;28;20192;-94
2022/09/22 09:24:40;;;;;;;1.77;1.55;;;12.20;99.90;;;;;;5063702;28;20179;-93
2022/09/22 09:27:13;;;;;;;1.77;1.50;;;12.30;99.90;;;;;;5067344;28;20601;-90
2022/09/22 09:29:53;;;;;;;1.48;1.38;;;12.20;99.90;;;;;;5058023;28;20227;-92
2022/09/22 09:32:35;;;;;;;1.48;1.38;;;12.30;99.90;;;;;;5066599;28;20247;-91
2022/09/22 09:35:01;;;;;;;1.88;1.63;;;12.50;99.90;;;;;;5048990;28;20184;-94
2022/09/22 09:37:28;;;;;;;1.08;1.00;;;12.50;99.90;;;;;;5056013;28;20226;-92
2022/09/22 09:39:55;;;;;;;2.15;1.85;;;12.50;99.90;;;;;;5056917;28;20181;-95
2022/09/22 09:42:30;;;;;;;0.93;0.93;;;12.60;99.90;;;;;;5040187;28;20566;-92
2022/09/22 09:45:01;;;;;;;0.98;0.98;;;12.60;99.90;;;;;;5076613;28;20650;-93
2022/09/22 09:47:29;;;;;;;1.90;1.55;;;12.60;99.90;;;;;;5045867;28;20175;-93
2022/09/22 09:49:55;;;;;;;1.25;1.08;;;12.60;99.90;;;;;;5057610;28;20347;-90
2022/09/22 09:52:25;;;;;;;1.95;1.27;;;12.50;99.90;;;;;;5075557;28;20208;-94
2022/09/22 09:54:55;;;;;;;1.52;1.23;;;12.60;99.90;;;;;;5069249;28;20187;-92
2022/09/22 09:57:21;;;;;;;1.30;1.20;;;13.30;99.90;;;;;;5065777;28;20171;-94
2022/09/22 10:03:02;;;;;;;0.90;0.90;;;12.80;99.90;;;;;;5060488;28;20689;-92
2022/09/22 10:05:29;;;;;;;1.83;1.20;;;12.90;99.90;;;;;;5064136;28;20525;-88
2022/09/22 10:07:57;;;;;;;1.67;1.00;;;12.90;99.90;;;;;;5050449;28;20550;-92
2022/09/22 10:10:31;;;;;;;0.70;0.70;;;12.90;99.90;;;;;;5056405;28;20241;-90
2022/09/22 10:13:03;;;;;;;1.10;1.00;;;12.90;99.90;;;;;;5068482;28;20206;-88
2022/09/22 10:15:30;;;;;;;1.02;1.02;;;12.90;99.90;;;;;;5065496;28;20186;-89
2022/09/22 10:17:56;;;;;;;1.35;1.00;;;12.90;99.90;;;;;;5067563;28;20186;-95
2022/09/22 10:20:27;;;;;;;1.17;0.90;;;13.00;99.90;;;;;;5063469;28;20556;-91
2022/09/22 10:22:54;;;;;;;1.20;1.10;;;13.00;99.90;;;;;;5063442;28;20179;-92
2022/09/22 10:25:22;;;;;;;1.17;1.00;;;13.00;99.90;;;;;;5065847;28;20172;-92
2022/09/22 10:28:04;;;;;;;0.90;0.90;;;13.00;99.90;;;;;;5067043;28;20190;-93
2022/09/22 10:30:36;;;;;;;1.80;1.10;;;13.10;99.90;;;;;;5067283;28;20693;-90
2022/09/22 10:33:21;;;;;;;0.80;0.80;;;13.10;99.90;;;;;;5030927;28;20187;-89
2022/09/22 10:36:09;;;;;;;1.05;0.98;;;13.10;99.90;;;;;;5026283;28;20183;-95
2022/09/22 10:38:40;;;;;;;1.00;1.00;;;13.20;99.90;;;;;;5069612;28;20168;-91
2022/09/22 10:41:26;;;;;;;1.50;1.40;;;13.20;99.90;;;;;;5055473;28;20637;-92
2022/09/22 10:44:06;;;;;;;0.73;0.73;;;13.20;99.90;;;;;;5053679;28;20409;-93
2022/09/22 10:47:17;;;;;;;1.65;1.27;;;13.30;99.90;;;;;;5056164;28;20187;-91
2022/09/22 10:50:21;;;;;;;1.10;1.00;;;13.30;99.90;;;;;;5008616;28;20217;-91
2022/09/22 10:53:08;;;;;;;0.68;0.68;;;13.30;99.90;;;;;;5063400;28;20179;-92
2022/09/22 10:55:45;;;;;;;0.90;0.90;;;13.40;99.90;;;;;;5060535;28;20179;-90
2022/09/22 10:58:22;;;;;;;1.13;0.90;;;13.50;99.90;;;;;;5052307;28;20193;-92
2022/09/22 11:00:54;;;;;;;1.35;1.02;;;13.60;99.90;;;;;;5046238;28;20187;-93
2022/09/22 11:03:41;;;;;;;0.85;0.85;;;13.60;99.90;;;;;;5066620;28;20704;-91
2022/09/22 11:12:15;;;;;;;0.90;0.90;;;13.60;99.90;;;;;;5065634;28;20227;-92
2022/09/22 11:15:03;;;;;;;1.17;0.90;;;13.50;99.90;;;;;;5067273;28;20175;-92
2022/09/22 11:17:55;;;;;;;0.98;0.88;;;13.50;99.90;;;;;;5066814;28;20175;-92
2022/09/22 11:20:35;;;;;;;1.10;0.85;;;13.50;99.90;;;;;;5060738;28;20179;-93
2022/09/22 11:23:03;;;;;;;1.77;1.27;;;13.40;99.90;;;;;;5080975;28;20211;-91
2022/09/22 11:25:38;;;;;;;1.70;1.23;;;13.50;99.90;;;;;;5057422;28;20171;-91
2022/09/22 11:28:07;;;;;;;1.05;0.95;;;13.60;99.90;;;;;;5078244;28;20220;-91
2022/09/22 11:30:41;;;;;;;0.88;0.88;;;13.60;99.90;;;;;;5074334;28;20238;-93
2022/09/22 11:33:42;;;;;;;1.42;0.90;;;13.60;99.90;;;;;;5075784;28;20204;-93
2022/09/22 11:36:20;;;;;;;0.80;0.80;;;13.50;99.90;;;;;;4974960;28;20198;-94
2022/09/22 11:39:02;;;;;;;0.85;0.85;;;13.60;99.90;;;;;;5063013;28;20191;-92
2022/09/22 11:41:33;;;;;;;0.88;0.88;;;13.50;99.90;;;;;;5076652;28;20182;-94
2022/09/22 11:44:53;;;;;;;1.15;1.15;;;13.40;99.90;;;;;;5059697;28;20199;-93
2022/09/22 11:47:48;;;;;;;1.73;1.08;;;13.50;99.90;;;;;;4981433;28;20182;-93
2022/09/22 11:50:23;;;;;;;1.10;1.05;;;13.50;99.90;;;;;;5086038;28;20215;-94
2022/09/22 11:53:16;;;;;;;2.28;1.83;;;13.60;99.90;;;;;;5070185;28;20178;-95
2022/09/22 11:56:01;;;;;;;1.13;1.00;;;13.60;99.90;;;;;;5077031;28;20179;-95
2022/09/22 11:58:30;;;;;;;2.38;1.05;;;13.70;99.90;;;;;;5077099;28;20167;-95
2022/09/22 12:01:09;;;;;;;0.82;0.82;;;13.80;99.90;;;;;;5077170;28;20201;-94
2022/09/22 12:03:45;;;;;;;1.17;1.00;;;13.90;99.90;;;;;;5058782;28;20710;-94
2022/09/22 12:06:16;;;;;;;0.70;0.70;;;14.00;99.90;;;;;;5077084;28;20182;-94
2022/09/22 12:08:56;;;;;;;1.38;1.25;;;14.10;99.90;;;;;;5061620;28;20171;-92
2022/09/22 12:11:25;;;;;;;0.85;0.85;;;14.10;99.90;;;;;;5079174;28;20250;-92
2022/09/22 12:13:52;;;;;;;1.08;0.75;;;14.10;99.90;;;;;;5087819;28;20179;-94
2022/09/22 12:16:44;;;;;;;1.33;0.85;;;14.20;99.90;;;;;;5050872;28;20175;-89
2022/09/22 12:19:47;;;;;;;0.98;0.95;;;14.30;99.90;;;;;;5090707;28;20172;-89
2022/09/22 12:22:50;;;;;;;1.85;1.23;;;14.30;99.90;;;;;;5084197;28;20199;-89
2022/09/22 12:25:46;;;;;;;1.10;1.00;;;14.20;99.90;;;;;;5047128;28;20176;-90
2022/09/22 12:28:28;;;;;;;0.68;0.60;;;14.30;99.90;;;;;;5064385;28;20164;-90
2022/09/22 12:31:11;;;;;;;0.70;0.70;;;14.20;99.90;;;;;;5070551;28;20239;-91
2022/09/22 12:33:58;;;;;;;0.80;0.80;;;14.10;99.90;;;;;;5073961;28;20202;-92
2022/09/22 12:36:38;;;;;;;1.83;1.02;;;14.10;99.90;;;;;;5060161;28;20199;-91
2022/09/22 12:39:26;;;;;;;0.75;0.75;;;14.00;99.90;;;;;;5074825;28;20172;-90
2022/09/22 12:42:01;;;;;;;0.98;0.82;;;13.90;99.90;;;;;;5074148;28;20168;-91
2022/09/22 12:44:34;;;;;;;1.13;1.00;;;13.90;99.90;;;;;;5072633;28;20233;-93
2022/09/22 12:47:05;;;;;;;0.60;0.60;;;13.90;99.90;;;;;;5070913;28;20198;-91
2022/09/22 12:49:31;;;;;;;1.13;1.02;;;14.00;99.90;;;;;;5061216;28;20187;-92
2022/09/22 12:51:57;;;;;;;2.50;0.95;;;14.00;99.90;;;;;;5056564;28;20215;-91
2022/09/22 12:54:23;;;;;;;1.02;0.90;;;14.00;99.90;;;;;;5039542;28;20183;-90
2022/09/22 12:56:56;;;;;;;1.80;1.00;;;14.10;99.90;;;;;;5063976;28;20172;-90
2022/09/22 12:59:34;;;;;;;1.23;0.90;;;14.10;99.90;;;;;;5078950;28;20176;-91
2022/09/22 13:02:13;;;;;;;0.85;0.80;;;14.10;99.90;;;;;;5061812;28;20168;-90
2022/09/22 13:04:39;;;;;;;1.38;0.93;;;15.40;99.90;;;;;;5061349;28;20168;-90
2022/09/22 13:07:38;;;;;;;0.98;0.88;;;14.10;99.90;;;;;;5078412;28;20171;-91
2022/09/22 13:10:22;;;;;;;0.55;0.55;;;14.10;99.90;;;;;;5070492;28;20183;-92
2022/09/22 13:13:01;;;;;;;1.85;0.70;;;14.00;99.90;;;;;;5078823;28;20202;-90
2022/09/22 13:15:30;;;;;;;0.57;0.57;;;14.00;99.90;;;;;;5079752;28;20176;-89
2022/09/22 13:17:57;;;;;;;1.08;1.00;;;14.00;99.90;;;;;;5095238;28;20188;-89
2022/09/22 13:20:34;;;;;;;1.65;0.85;;;13.90;99.90;;;;;;5096816;28;20174;-89
2022/09/22 13:23:04;;;;;;;1.05;0.93;;;13.90;99.90;;;;;;5096085;28;20171;-91
2022/09/22 13:25:30;;;;;;;0.75;0.75;;;13.90;99.90;;;;;;5080168;28;20182;-91
2022/09/22 13:28:24;;;;;;;1.70;0.95;;;13.80;99.90;;;;;;5096139;28;20164;-92
2022/09/22 13:31:01;;;;;;;1.42;1.02;;;13.80;99.90;;;;;;5076743;28;20230;-91